createdAt,value
2022-08-11T00:00:25.113Z,15.64
2022-08-11T00:01:25.098Z,15.64
2022-08-11T00:02:32.120Z,15.64
2022-08-11T00:03:42.541Z,15.62
2022-08-11T00:04:32.574Z,15.62
2022-08-11T00:05:25.134Z,15.61
2022-08-11T00:06:25.045Z,15.58
2022-08-11T00:07:25.034Z,15.58
2022-08-11T00:08:28.024Z,15.57
2022-08-11T00:09:32.132Z,15.55
2022-08-11T00:10:25.012Z,15.55
2022-08-11T00:11:26.982Z,15.52
2022-08-11T00:12:24.984Z,15.54
2022-08-11T00:13:24.973Z,15.52
2022-08-11T00:14:24.963Z,15.49
2022-08-11T00:15:24.973Z,15.47
2022-08-11T00:16:24.933Z,15.46
2022-08-11T00:17:31.938Z,15.46
2022-08-11T00:18:24.915Z,15.46
2022-08-11T00:20:11.643Z,15.44
2022-08-11T00:20:25.937Z,15.44
2022-08-11T00:22:02.747Z,15.40
2022-08-11T00:22:25.877Z,15.37
2022-08-11T00:23:27.870Z,15.35
2022-08-11T00:24:24.870Z,15.36
2022-08-11T00:25:24.887Z,15.33
2022-08-11T00:26:24.834Z,15.31
2022-08-11T00:27:24.819Z,15.31
2022-08-11T00:28:24.817Z,15.29
2022-08-11T00:29:31.826Z,15.29
2022-08-11T00:30:24.794Z,15.28
2022-08-11T00:31:24.784Z,15.28
2022-08-11T00:32:24.782Z,15.28
2022-08-11T00:33:41.411Z,15.25
2022-08-11T00:34:25.754Z,15.27
2022-08-11T00:35:55.548Z,15.21
2022-08-11T00:36:25.841Z,15.19
2022-08-11T00:37:24.754Z,15.17
2022-08-11T00:38:27.712Z,15.11
2022-08-11T00:39:28.946Z,15.09
2022-08-11T00:40:24.685Z,15.06
2022-08-11T00:41:24.685Z,15.06
2022-08-11T00:42:24.701Z,15.03
2022-08-11T00:43:24.667Z,15.00
2022-08-11T00:44:24.648Z,14.99
2022-08-11T00:45:24.639Z,14.96
2022-08-11T00:46:24.617Z,14.96
2022-08-11T00:47:24.651Z,14.97
2022-08-11T00:48:24.600Z,14.96
2022-08-11T00:49:24.587Z,14.96
2022-08-11T00:50:24.587Z,14.94
2022-08-11T00:51:24.569Z,14.92
2022-08-11T00:52:25.595Z,14.89
2022-08-11T00:53:27.553Z,14.88
2022-08-11T00:54:33.196Z,14.86
2022-08-11T00:55:24.546Z,14.85
2022-08-11T00:56:31.620Z,14.82
2022-08-11T00:57:36.074Z,14.82
2022-08-11T00:58:24.501Z,14.81
2022-08-11T00:59:35.318Z,14.79
2022-08-11T01:00:24.481Z,14.78
2022-08-11T01:01:24.572Z,14.78
2022-08-11T01:02:24.463Z,14.73
2022-08-11T01:03:24.452Z,14.77
2022-08-11T01:04:24.444Z,14.70
2022-08-11T01:05:24.434Z,14.70
2022-08-11T01:06:24.413Z,14.69
2022-08-11T01:08:01.380Z,14.66
2022-08-11T01:08:28.417Z,14.68
2022-08-11T01:09:24.398Z,14.65
2022-08-11T01:10:24.373Z,14.63
2022-08-11T01:11:24.368Z,14.63
2022-08-11T01:12:24.354Z,14.62
2022-08-11T01:13:24.364Z,14.59
2022-08-11T01:14:34.091Z,14.54
2022-08-11T01:15:24.329Z,14.51
2022-08-11T01:16:24.316Z,14.47
2022-08-11T01:17:24.304Z,14.44
2022-08-11T01:18:28.297Z,14.41
2022-08-11T01:19:24.287Z,14.43
2022-08-11T01:20:45.138Z,14.40
2022-08-11T01:21:25.278Z,14.37
2022-08-11T01:22:24.256Z,14.36
2022-08-11T01:23:27.239Z,14.36
2022-08-11T01:24:24.248Z,14.35
2022-08-11T01:25:24.231Z,14.36
2022-08-11T01:26:24.367Z,14.35
2022-08-11T01:27:24.199Z,14.33
2022-08-11T01:28:24.240Z,14.32
2022-08-11T01:29:24.183Z,14.30
2022-08-11T01:30:31.234Z,14.29
2022-08-11T01:31:24.156Z,14.29
2022-08-11T01:32:24.152Z,14.29
2022-08-11T01:33:24.139Z,14.28
2022-08-11T01:34:24.996Z,14.30
2022-08-11T01:35:24.109Z,14.32
2022-08-11T01:36:24.128Z,14.30
2022-08-11T01:37:24.088Z,14.30
2022-08-11T01:38:27.091Z,14.33
2022-08-11T01:39:24.119Z,14.33
2022-08-11T01:40:24.060Z,14.35
2022-08-11T01:41:24.061Z,14.35
2022-08-11T01:42:24.045Z,14.35
2022-08-11T01:43:24.029Z,14.33
2022-08-11T01:44:24.062Z,14.35
2022-08-11T01:45:24.136Z,14.35
2022-08-11T01:46:24.003Z,14.35
2022-08-11T01:47:23.992Z,14.35
2022-08-11T01:48:23.982Z,14.36
2022-08-11T01:50:05.907Z,14.36
2022-08-11T01:50:24.963Z,14.35
2022-08-11T01:51:23.958Z,14.35
2022-08-11T01:52:30.203Z,14.35
2022-08-11T01:53:26.974Z,14.36
2022-08-11T01:54:23.943Z,14.36
2022-08-11T01:55:23.905Z,14.36
2022-08-11T01:56:23.901Z,14.36
2022-08-11T01:57:23.895Z,14.37
2022-08-11T01:58:36.261Z,14.37
2022-08-11T01:59:24.863Z,14.36
2022-08-11T02:00:23.869Z,14.36
2022-08-11T02:01:23.910Z,14.37
2022-08-11T02:02:23.826Z,14.36
2022-08-11T02:03:23.844Z,14.33
2022-08-11T02:04:23.820Z,14.35
2022-08-11T02:05:23.827Z,14.35
2022-08-11T02:06:23.803Z,14.36
2022-08-11T02:07:23.776Z,14.35
2022-08-11T02:08:33.060Z,14.32
2022-08-11T02:09:23.788Z,14.29
2022-08-11T02:10:26.786Z,14.29
2022-08-11T02:11:23.748Z,14.26
2022-08-11T02:12:23.756Z,14.25
2022-08-11T02:13:35.704Z,14.22
2022-08-11T02:14:23.710Z,14.22
2022-08-11T02:15:23.697Z,14.22
2022-08-11T02:16:23.689Z,14.22
2022-08-11T02:17:23.681Z,14.18
2022-08-11T02:18:23.822Z,14.18
2022-08-11T02:19:23.667Z,14.15
2022-08-11T02:20:23.672Z,14.15
2022-08-11T02:21:23.639Z,14.17
2022-08-11T02:22:23.633Z,14.17
2022-08-11T02:24:07.118Z,14.15
2022-08-11T02:24:24.621Z,14.17
2022-08-11T02:25:23.621Z,14.18
2022-08-11T02:26:23.592Z,14.18
2022-08-11T02:27:23.611Z,14.20
2022-08-11T02:28:23.603Z,14.18
2022-08-11T02:29:23.557Z,14.20
2022-08-11T02:30:23.556Z,14.17
2022-08-11T02:32:24.175Z,14.18
2022-08-11T02:32:30.560Z,14.17
2022-08-11T02:33:23.562Z,14.15
2022-08-11T02:34:23.505Z,14.14
2022-08-11T02:35:23.493Z,14.11
2022-08-11T02:36:23.483Z,14.10
2022-08-11T02:37:23.708Z,14.07
2022-08-11T02:38:26.464Z,14.05
2022-08-11T02:39:23.527Z,14.05
2022-08-11T02:40:23.438Z,14.04
2022-08-11T02:41:23.429Z,14.03
2022-08-11T02:42:32.706Z,13.99
2022-08-11T02:43:23.419Z,13.99
2022-08-11T02:44:23.409Z,13.93
2022-08-11T02:45:23.397Z,13.89
2022-08-11T02:46:23.378Z,13.89
2022-08-11T02:47:23.404Z,13.83
2022-08-11T02:48:23.361Z,13.79
2022-08-11T02:49:23.350Z,13.77
2022-08-11T02:50:23.344Z,13.77
2022-08-11T02:51:23.332Z,13.77
2022-08-11T02:52:23.325Z,13.77
2022-08-11T02:53:26.306Z,13.75
2022-08-11T02:54:23.344Z,13.74
2022-08-11T02:55:55.710Z,13.72
2022-08-11T02:56:24.281Z,13.67
2022-08-11T02:57:23.259Z,13.63
2022-08-11T02:58:26.890Z,13.62
2022-08-11T02:59:23.249Z,13.60
2022-08-11T03:00:23.232Z,13.57
2022-08-11T03:01:23.305Z,13.56
2022-08-11T03:02:23.224Z,13.56
2022-08-11T03:03:23.201Z,13.53
2022-08-11T03:04:23.192Z,13.53
2022-08-11T03:05:23.183Z,13.53
2022-08-11T03:06:23.184Z,13.50
2022-08-11T03:07:29.199Z,13.49
2022-08-11T03:08:26.145Z,13.49
2022-08-11T03:09:23.155Z,13.47
2022-08-11T03:10:23.138Z,13.47
2022-08-11T03:11:23.125Z,13.46
2022-08-11T03:12:23.107Z,13.46
2022-08-11T03:13:23.107Z,13.46
2022-08-11T03:14:23.087Z,13.47
2022-08-11T03:15:23.081Z,13.46
2022-08-11T03:16:23.109Z,13.44
2022-08-11T03:17:23.055Z,13.42
2022-08-11T03:18:23.057Z,13.41
2022-08-11T03:19:23.036Z,13.42
2022-08-11T03:20:23.017Z,13.39
2022-08-11T03:21:24.047Z,13.41
2022-08-11T03:22:24.006Z,13.41
2022-08-11T03:23:25.999Z,13.41
2022-08-11T03:24:23.000Z,13.39
2022-08-11T03:25:23.022Z,13.39
2022-08-11T03:26:22.959Z,13.38
2022-08-11T03:27:22.958Z,13.35
2022-08-11T03:28:22.962Z,13.35
2022-08-11T03:29:24.924Z,13.35
2022-08-11T03:30:22.919Z,13.33
2022-08-11T03:31:22.913Z,13.33
2022-08-11T03:32:22.901Z,13.35
2022-08-11T03:33:22.892Z,13.35
2022-08-11T03:34:22.877Z,13.35
2022-08-11T03:35:22.943Z,13.35
2022-08-11T03:36:22.865Z,13.35
2022-08-11T03:37:22.859Z,13.37
2022-08-11T03:38:30.620Z,13.35
2022-08-11T03:39:22.874Z,13.33
2022-08-11T03:40:22.773Z,13.31
2022-08-11T03:42:01.281Z,13.28
2022-08-11T03:42:23.823Z,13.27
2022-08-11T03:43:22.823Z,13.25
2022-08-11T03:44:22.786Z,13.23
2022-08-11T03:45:22.764Z,13.20
2022-08-11T03:46:22.827Z,13.20
2022-08-11T03:47:22.707Z,13.20
2022-08-11T03:48:22.692Z,13.19
2022-08-11T03:49:22.677Z,13.13
2022-08-11T03:50:22.704Z,13.15
2022-08-11T03:51:22.646Z,13.11
2022-08-11T03:52:22.637Z,13.12
2022-08-11T03:53:25.636Z,13.12
2022-08-11T03:54:22.635Z,13.13
2022-08-11T03:55:22.614Z,13.11
2022-08-11T03:56:22.629Z,13.11
2022-08-11T03:57:22.580Z,13.12
2022-08-11T03:58:22.586Z,13.12
2022-08-11T03:59:22.558Z,13.15
2022-08-11T04:00:22.561Z,13.13
2022-08-11T04:01:22.602Z,13.15
2022-08-11T04:02:22.566Z,13.15
2022-08-11T04:03:22.533Z,13.15
2022-08-11T04:04:22.510Z,13.15
2022-08-11T04:05:22.501Z,13.16
2022-08-11T04:06:22.503Z,13.15
2022-08-11T04:07:22.482Z,13.15
2022-08-11T04:08:25.463Z,13.15
2022-08-11T04:09:22.478Z,13.13
2022-08-11T04:10:22.453Z,13.12
2022-08-11T04:11:22.442Z,13.12
2022-08-11T04:12:35.789Z,13.09
2022-08-11T04:13:22.413Z,13.09
2022-08-11T04:14:22.412Z,13.08
2022-08-11T04:15:22.442Z,13.08
2022-08-11T04:16:22.399Z,13.08
2022-08-11T04:17:22.656Z,13.04
2022-08-11T04:18:22.381Z,13.03
2022-08-11T04:19:22.365Z,13.01
2022-08-11T04:20:22.345Z,13.03
2022-08-11T04:21:22.356Z,12.98
2022-08-11T04:22:22.335Z,12.98
2022-08-11T04:24:34.607Z,12.98
2022-08-11T04:24:38.179Z,12.98
2022-08-11T04:25:23.286Z,12.97
2022-08-11T04:26:22.299Z,12.97
2022-08-11T04:27:22.283Z,12.97
2022-08-11T04:28:29.331Z,12.97
2022-08-11T04:29:22.258Z,12.94
2022-08-11T04:30:23.248Z,12.94
2022-08-11T04:31:50.589Z,12.94
2022-08-11T04:32:23.221Z,12.91
2022-08-11T04:33:22.239Z,12.90
2022-08-11T04:34:22.197Z,12.90
2022-08-11T04:35:22.190Z,12.90
2022-08-11T04:36:22.179Z,12.87
2022-08-11T04:37:22.171Z,12.86
2022-08-11T04:38:25.250Z,12.87
2022-08-11T04:39:22.292Z,12.91
2022-08-11T04:40:22.129Z,12.93
2022-08-11T04:41:22.120Z,12.91
2022-08-11T04:42:22.117Z,12.91
2022-08-11T04:43:22.216Z,12.90
2022-08-11T04:44:22.091Z,12.91
2022-08-11T04:45:22.090Z,12.91
2022-08-11T04:46:22.071Z,12.91
2022-08-11T04:47:22.060Z,12.93
2022-08-11T04:48:22.050Z,12.94
2022-08-11T04:49:25.520Z,12.91
2022-08-11T04:50:22.022Z,12.94
2022-08-11T04:51:22.019Z,12.95
2022-08-11T04:52:22.009Z,12.94
2022-08-11T04:53:26.006Z,12.95
2022-08-11T04:54:26.382Z,12.95
2022-08-11T04:55:21.973Z,12.94
2022-08-11T04:56:21.991Z,12.95
2022-08-11T04:57:21.955Z,12.97
2022-08-11T04:58:21.946Z,12.97
2022-08-11T04:59:21.933Z,12.97
2022-08-11T05:00:21.940Z,12.97
2022-08-11T05:01:21.972Z,12.95
2022-08-11T05:02:22.006Z,12.93
2022-08-11T05:03:21.906Z,12.94
2022-08-11T05:04:21.916Z,12.91
2022-08-11T05:05:21.885Z,12.87
2022-08-11T05:06:21.866Z,12.86
2022-08-11T05:07:21.853Z,12.86
2022-08-11T05:08:24.836Z,12.85
2022-08-11T05:09:21.849Z,12.85
2022-08-11T05:10:21.819Z,12.86
2022-08-11T05:11:21.841Z,12.86
2022-08-11T05:12:21.802Z,12.90
2022-08-11T05:13:21.791Z,12.90
2022-08-11T05:14:23.051Z,12.91
2022-08-11T05:15:21.759Z,12.93
2022-08-11T05:16:28.863Z,12.95
2022-08-11T05:17:28.971Z,12.98
2022-08-11T05:18:21.730Z,13.00
2022-08-11T05:19:21.730Z,13.03
2022-08-11T05:20:21.702Z,13.04
2022-08-11T05:21:28.725Z,13.05
2022-08-11T05:23:32.832Z,13.13
2022-08-11T05:24:39.811Z,13.15
2022-08-11T05:26:43.220Z,13.18
2022-08-11T05:26:47.373Z,13.20
2022-08-11T05:27:33.753Z,13.22
2022-08-11T05:28:32.772Z,13.23
2022-08-11T05:29:32.753Z,13.27
2022-08-11T05:30:34.697Z,13.31
2022-08-11T05:31:32.728Z,13.37
2022-08-11T05:32:32.719Z,13.39
2022-08-11T05:33:32.694Z,13.44
2022-08-11T05:34:32.705Z,13.47
2022-08-11T05:36:00.552Z,13.50
2022-08-11T05:36:36.657Z,13.52
2022-08-11T05:37:32.664Z,13.56
2022-08-11T05:38:39.650Z,13.60
2022-08-11T05:39:36.388Z,13.63
2022-08-11T05:40:32.629Z,13.65
2022-08-11T05:41:32.629Z,13.68
2022-08-11T05:42:40.759Z,13.70
2022-08-11T05:43:39.615Z,13.72
2022-08-11T05:44:33.577Z,13.75
2022-08-11T05:45:57.377Z,13.79
2022-08-11T05:46:39.611Z,13.86
2022-08-11T05:47:32.541Z,13.89
2022-08-11T05:48:39.550Z,13.95
2022-08-11T05:49:39.537Z,14.00
2022-08-11T05:50:33.479Z,14.10
2022-08-11T05:51:52.389Z,14.18
2022-08-11T05:52:32.526Z,14.30
2022-08-11T05:53:45.940Z,14.35
2022-08-11T05:54:39.500Z,14.47
2022-08-11T05:55:32.458Z,14.54
2022-08-11T05:56:33.446Z,14.65
2022-08-11T05:57:45.487Z,14.78
2022-08-11T05:58:36.847Z,14.92
2022-08-11T05:59:32.425Z,14.99
2022-08-11T06:00:32.413Z,15.06
2022-08-11T06:01:32.430Z,15.17
2022-08-11T06:02:32.548Z,15.21
2022-08-11T06:03:39.409Z,15.25
2022-08-11T06:04:33.368Z,15.29
2022-08-11T06:05:32.351Z,15.36
2022-08-11T06:06:35.333Z,15.42
2022-08-11T06:07:48.844Z,15.49
2022-08-11T06:08:32.320Z,15.55
2022-08-11T06:09:32.309Z,15.59
2022-08-11T06:10:32.331Z,15.65
2022-08-11T06:11:43.244Z,15.73
2022-08-11T06:12:32.314Z,15.79
2022-08-11T06:13:32.358Z,15.82
2022-08-11T06:14:32.300Z,15.91
2022-08-11T06:15:32.240Z,15.97
2022-08-11T06:16:32.242Z,16.01
2022-08-11T06:17:38.564Z,16.05
2022-08-11T06:18:32.215Z,16.09
2022-08-11T06:20:32.247Z,16.20
2022-08-11T06:21:35.183Z,16.24
2022-08-11T06:22:32.233Z,16.31
2022-08-11T06:23:32.197Z,16.32
2022-08-11T06:24:32.175Z,16.38
2022-08-11T06:25:32.145Z,16.43
2022-08-11T06:26:40.683Z,16.47
2022-08-11T06:27:33.114Z,16.50
2022-08-11T06:28:32.124Z,16.53
2022-08-11T06:29:38.106Z,16.53
2022-08-11T06:30:33.086Z,16.56
2022-08-11T06:31:32.064Z,16.60
2022-08-11T06:32:32.089Z,16.61
2022-08-11T06:33:32.089Z,16.64
2022-08-11T06:34:32.041Z,16.69
2022-08-11T06:35:32.056Z,16.72
2022-08-11T06:36:35.024Z,16.78
2022-08-11T06:37:36.257Z,16.83
2022-08-11T06:38:32.004Z,16.87
2022-08-11T06:39:32.027Z,16.90
2022-08-11T06:40:31.983Z,16.89
2022-08-11T06:41:32.161Z,16.91
2022-08-11T06:42:31.958Z,16.94
2022-08-11T06:43:31.969Z,16.97
2022-08-11T06:44:31.947Z,16.97
2022-08-11T06:45:31.937Z,17.02
2022-08-11T06:46:31.928Z,17.05
2022-08-11T06:47:31.966Z,17.08
2022-08-11T06:48:31.941Z,17.05
2022-08-11T06:49:31.896Z,17.09
2022-08-11T06:50:31.902Z,17.15
2022-08-11T06:51:34.878Z,17.19
2022-08-11T06:52:35.389Z,17.23
2022-08-11T06:53:31.852Z,17.27
2022-08-11T06:54:31.830Z,17.34
2022-08-11T06:55:58.063Z,17.59
2022-08-11T06:56:32.822Z,18.00
2022-08-11T06:57:31.843Z,18.40
2022-08-11T06:58:31.814Z,18.70
2022-08-11T06:59:31.786Z,18.89
2022-08-11T07:00:33.106Z,19.11
2022-08-11T07:01:31.782Z,19.29
2022-08-11T07:02:31.881Z,19.48
2022-08-11T07:03:31.770Z,19.64
2022-08-11T07:04:31.753Z,19.77
2022-08-11T07:05:31.719Z,19.94
2022-08-11T07:06:50.514Z,20.13
2022-08-11T07:07:32.717Z,20.26
2022-08-11T07:08:34.002Z,20.44
2022-08-11T07:09:31.716Z,20.63
2022-08-11T07:10:31.666Z,20.82
2022-08-11T07:11:31.664Z,21.00
2022-08-11T07:12:31.654Z,21.21
2022-08-11T07:13:44.183Z,21.45
2022-08-11T07:14:36.326Z,21.64
2022-08-11T07:16:13.292Z,21.77
2022-08-11T07:16:32.610Z,21.93
2022-08-11T07:17:31.590Z,22.10
2022-08-11T07:18:31.592Z,22.22
2022-08-11T07:19:31.624Z,22.39
2022-08-11T07:20:31.564Z,22.53
2022-08-11T07:22:00.620Z,22.48
2022-08-11T07:22:32.554Z,22.57
2022-08-11T07:23:31.534Z,22.80
2022-08-11T07:24:34.579Z,22.90
2022-08-11T07:25:32.503Z,23.05
2022-08-11T07:26:31.490Z,23.17
2022-08-11T07:27:35.501Z,23.28
2022-08-11T07:28:31.481Z,23.47
2022-08-11T07:29:31.539Z,23.61
2022-08-11T07:30:31.455Z,23.66
2022-08-11T07:31:31.437Z,23.71
2022-08-11T07:32:31.435Z,23.83
2022-08-11T07:34:05.880Z,23.99
2022-08-11T07:34:32.442Z,24.05
2022-08-11T07:35:31.402Z,24.02
2022-08-11T07:36:34.405Z,24.10
2022-08-11T07:37:31.397Z,24.17
2022-08-11T07:38:31.377Z,24.23
2022-08-11T07:39:31.449Z,24.38
2022-08-11T07:40:31.350Z,24.54
2022-08-11T07:41:31.394Z,24.39
2022-08-11T07:42:31.338Z,24.11
2022-08-11T07:43:31.329Z,23.99
2022-08-11T07:44:35.076Z,24.14
2022-08-11T07:45:31.307Z,24.29
2022-08-11T07:46:31.304Z,24.42
2022-08-11T07:47:31.289Z,24.51
2022-08-11T07:49:31.331Z,24.89
2022-08-11T07:50:31.256Z,25.07
2022-08-11T07:51:34.242Z,25.16
2022-08-11T07:52:31.243Z,25.08
2022-08-11T07:53:31.221Z,25.08
2022-08-11T07:54:32.207Z,24.99
2022-08-11T07:55:50.782Z,25.16
2022-08-11T07:56:54.405Z,25.11
2022-08-11T07:57:56.291Z,25.26
2022-08-11T07:58:39.519Z,25.46
2022-08-11T08:00:00.460Z,25.54
2022-08-11T08:00:32.133Z,25.59
2022-08-11T08:01:31.175Z,25.60
2022-08-11T08:02:31.118Z,25.73
2022-08-11T08:03:31.114Z,25.66
2022-08-11T08:04:31.114Z,25.77
2022-08-11T08:05:31.108Z,25.78
2022-08-11T08:06:36.042Z,25.81
2022-08-11T08:07:31.078Z,25.85
2022-08-11T08:08:31.057Z,25.90
2022-08-11T08:09:31.046Z,25.80
2022-08-11T08:10:31.054Z,25.81
2022-08-11T08:11:31.036Z,25.87
2022-08-11T08:12:31.022Z,25.95
2022-08-11T08:13:30.998Z,25.99
2022-08-11T08:14:30.988Z,26.09
2022-08-11T08:15:30.978Z,26.36
2022-08-11T08:16:31.069Z,26.43
2022-08-11T08:17:30.958Z,26.52
2022-08-11T08:18:30.948Z,26.63
2022-08-11T08:19:30.932Z,26.70
2022-08-11T08:20:30.920Z,26.77
2022-08-11T08:21:33.945Z,26.83
2022-08-11T08:22:38.717Z,26.74
2022-08-11T08:23:30.893Z,26.80
2022-08-11T08:24:30.878Z,26.68
2022-08-11T08:25:30.875Z,26.81
2022-08-11T08:26:30.867Z,26.83
2022-08-11T08:27:30.996Z,26.90
2022-08-11T08:28:32.642Z,27.00
2022-08-11T08:29:30.831Z,27.10
2022-08-11T08:30:30.855Z,26.90
2022-08-11T08:31:30.826Z,26.95
2022-08-11T08:32:30.789Z,26.90
2022-08-11T08:33:30.782Z,27.02
2022-08-11T08:34:32.218Z,26.88
2022-08-11T08:35:33.129Z,26.62
2022-08-11T08:36:34.757Z,26.81
2022-08-11T08:37:45.641Z,26.97
2022-08-11T08:38:31.729Z,27.02
2022-08-11T08:39:30.763Z,27.08
2022-08-11T08:40:30.729Z,27.12
2022-08-11T08:41:30.699Z,27.26
2022-08-11T08:42:30.690Z,27.42
2022-08-11T08:43:32.520Z,27.52
2022-08-11T08:44:41.209Z,27.60
2022-08-11T08:45:30.661Z,27.60
2022-08-11T08:46:30.718Z,27.68
2022-08-11T08:47:41.597Z,27.63
2022-08-11T08:48:30.676Z,27.59
2022-08-11T08:49:40.266Z,27.58
2022-08-11T08:50:30.608Z,27.65
2022-08-11T08:51:57.872Z,27.70
2022-08-11T08:52:35.894Z,27.78
2022-08-11T08:53:30.590Z,27.71
2022-08-11T08:54:30.560Z,27.59
2022-08-11T08:55:30.542Z,27.59
2022-08-11T08:57:30.533Z,27.78
2022-08-11T08:58:30.563Z,27.90
2022-08-11T08:59:47.891Z,27.89
2022-08-11T09:00:31.506Z,27.77
2022-08-11T09:01:30.531Z,27.65
2022-08-11T09:02:34.872Z,27.39
2022-08-11T09:04:02.792Z,27.29
2022-08-11T09:04:31.466Z,27.29
2022-08-11T09:05:30.447Z,27.37
2022-08-11T09:06:33.441Z,27.29
2022-08-11T09:07:38.763Z,27.29
2022-08-11T09:08:30.415Z,27.30
2022-08-11T09:09:30.449Z,27.39
2022-08-11T09:10:30.432Z,27.52
2022-08-11T09:11:30.380Z,27.70
2022-08-11T09:12:36.350Z,27.67
2022-08-11T09:13:30.370Z,27.71
2022-08-11T09:14:30.350Z,27.82
2022-08-11T09:15:30.353Z,27.86
2022-08-11T09:16:30.322Z,27.89
2022-08-11T09:17:30.319Z,27.90
2022-08-11T09:18:33.611Z,27.89
2022-08-11T09:19:30.296Z,27.95
2022-08-11T09:20:30.323Z,27.86
2022-08-11T09:21:41.703Z,27.75
2022-08-11T09:22:30.282Z,27.74
2022-08-11T09:24:31.252Z,28.14
2022-08-11T09:25:30.233Z,27.74
2022-08-11T09:26:37.260Z,27.58
2022-08-11T09:27:30.225Z,27.70
2022-08-11T09:28:30.206Z,27.54
2022-08-11T09:29:30.183Z,27.60
2022-08-11T09:30:30.211Z,27.82
2022-08-11T09:31:30.171Z,27.98
2022-08-11T09:32:30.163Z,28.10
2022-08-11T09:33:30.152Z,28.23
2022-08-11T09:34:30.134Z,28.30
2022-08-11T09:35:30.156Z,28.39
2022-08-11T09:36:33.118Z,28.47
2022-08-11T09:37:56.012Z,28.49
2022-08-11T09:38:31.098Z,28.62
2022-08-11T09:39:31.231Z,28.64
2022-08-11T09:40:30.126Z,28.64
2022-08-11T09:42:00.945Z,28.69
2022-08-11T09:42:31.058Z,28.64
2022-08-11T09:43:30.058Z,28.69
2022-08-11T09:44:30.043Z,28.79
2022-08-11T09:45:40.174Z,28.91
2022-08-11T09:46:30.008Z,29.10
2022-08-11T09:47:30.167Z,29.32
2022-08-11T09:48:37.050Z,29.45
2022-08-11T09:49:29.979Z,29.57
2022-08-11T09:50:29.970Z,29.32
2022-08-11T09:51:32.954Z,29.39
2022-08-11T09:52:29.976Z,29.44
2022-08-11T09:53:36.628Z,29.41
2022-08-11T09:54:30.013Z,29.49
2022-08-11T09:56:29.926Z,29.53
2022-08-11T09:58:41.791Z,29.76
2022-08-11T09:59:29.875Z,29.87
2022-08-11T10:00:29.866Z,30.02
2022-08-11T10:01:29.981Z,29.98
2022-08-11T10:02:29.896Z,29.90
2022-08-11T10:03:29.839Z,29.69
2022-08-11T10:04:29.815Z,29.59
2022-08-11T10:05:29.807Z,29.44
2022-08-11T10:06:34.244Z,29.45
2022-08-11T10:07:29.796Z,29.16
2022-08-11T10:08:29.788Z,29.12
2022-08-11T10:09:29.771Z,29.05
2022-08-11T10:10:29.771Z,29.12
2022-08-11T10:11:29.749Z,29.26
2022-08-11T10:12:29.788Z,29.36
2022-08-11T10:14:31.260Z,29.42
2022-08-11T10:14:34.814Z,29.44
2022-08-11T10:15:29.715Z,29.38
2022-08-11T10:16:29.701Z,29.41
2022-08-11T10:17:29.683Z,29.54
2022-08-11T10:18:29.716Z,29.57
2022-08-11T10:19:29.673Z,29.57
2022-08-11T10:20:29.653Z,29.50
2022-08-11T10:21:32.658Z,29.47
2022-08-11T10:22:32.956Z,29.50
2022-08-11T10:23:29.632Z,29.56
2022-08-11T10:24:29.613Z,29.56
2022-08-11T10:25:29.617Z,29.53
2022-08-11T10:26:29.600Z,29.47
2022-08-11T10:28:28.865Z,29.53
2022-08-11T10:28:49.792Z,29.54
2022-08-11T10:30:42.369Z,29.76
2022-08-11T10:31:57.246Z,29.73
2022-08-11T10:33:57.650Z,29.60
2022-08-11T10:34:54.513Z,29.66
2022-08-11T10:35:52.768Z,29.72
2022-08-11T10:36:52.761Z,29.59
2022-08-11T10:38:06.352Z,29.65
2022-08-11T10:38:53.766Z,29.60
2022-08-11T10:39:52.810Z,29.53
2022-08-11T10:40:52.725Z,29.49
2022-08-11T10:42:06.148Z,29.17
2022-08-11T10:42:57.661Z,29.14
2022-08-11T10:44:02.435Z,29.19
2022-08-11T10:44:52.693Z,29.23
2022-08-11T10:45:52.665Z,29.23
2022-08-11T10:46:55.665Z,29.20
2022-08-11T10:47:52.656Z,29.38
2022-08-11T10:48:52.638Z,29.51
2022-08-11T10:49:52.648Z,29.65
2022-08-11T10:50:52.628Z,29.76
2022-08-11T10:51:53.886Z,29.73
2022-08-11T10:52:52.598Z,29.71
2022-08-11T10:53:52.691Z,29.76
2022-08-11T10:54:52.589Z,29.91
2022-08-11T10:55:52.684Z,29.94
2022-08-11T10:56:52.551Z,30.02
2022-08-11T10:58:04.164Z,30.00
2022-08-11T10:58:52.532Z,29.81
2022-08-11T10:59:52.523Z,29.82
2022-08-11T11:00:52.559Z,29.79
2022-08-11T11:01:55.541Z,29.86
2022-08-11T11:03:22.241Z,29.91
2022-08-11T11:03:53.492Z,29.73
2022-08-11T11:04:52.475Z,29.76
2022-08-11T11:06:28.901Z,29.87
2022-08-11T11:06:53.487Z,29.75
2022-08-11T11:07:52.454Z,29.71
2022-08-11T11:08:52.584Z,29.69
2022-08-11T11:09:53.425Z,29.81
2022-08-11T11:10:52.426Z,29.78
2022-08-11T11:11:52.427Z,29.79
2022-08-11T11:12:52.396Z,29.79
2022-08-11T11:13:53.267Z,29.81
2022-08-11T11:14:58.273Z,29.88
2022-08-11T11:15:52.369Z,29.95
2022-08-11T11:16:55.390Z,29.97
2022-08-11T11:17:52.390Z,29.93
2022-08-11T11:19:01.176Z,29.91
2022-08-11T11:19:52.339Z,29.84
2022-08-11T11:20:52.375Z,29.88
2022-08-11T11:21:52.304Z,29.95
2022-08-11T11:22:52.304Z,30.05
2022-08-11T11:23:52.291Z,29.91
2022-08-11T11:24:52.285Z,29.76
2022-08-11T11:25:56.775Z,29.75
2022-08-11T11:26:52.254Z,29.76
2022-08-11T11:27:52.248Z,29.82
2022-08-11T11:28:52.291Z,29.84
2022-08-11T11:29:52.235Z,29.90
2022-08-11T11:30:52.226Z,29.94
2022-08-11T11:31:55.200Z,29.90
2022-08-11T11:32:52.207Z,29.68
2022-08-11T11:34:06.419Z,29.68
2022-08-11T11:34:54.010Z,29.66
2022-08-11T11:35:52.164Z,29.73
2022-08-11T11:36:52.160Z,29.82
2022-08-11T11:38:03.426Z,29.90
2022-08-11T11:38:52.149Z,29.94
2022-08-11T11:39:52.239Z,29.91
2022-08-11T11:40:52.121Z,29.95
2022-08-11T11:41:52.198Z,30.00
2022-08-11T11:42:52.115Z,30.02
2022-08-11T11:43:52.241Z,30.13
2022-08-11T11:44:55.461Z,30.10
2022-08-11T11:45:52.091Z,30.10
2022-08-11T11:46:56.701Z,29.95
2022-08-11T11:47:52.077Z,29.81
2022-08-11T11:48:52.048Z,29.84
2022-08-11T11:49:52.054Z,29.88
2022-08-11T11:50:53.715Z,29.88
2022-08-11T11:51:52.005Z,29.94
2022-08-11T11:52:51.996Z,29.94
2022-08-11T11:53:51.987Z,29.98
2022-08-11T11:54:52.009Z,30.12
2022-08-11T11:55:51.970Z,30.09
2022-08-11T11:56:51.971Z,30.12
2022-08-11T11:57:59.337Z,30.21
2022-08-11T11:58:51.927Z,30.24
2022-08-11T11:59:51.939Z,30.28
2022-08-11T12:00:51.922Z,30.37
2022-08-11T12:01:54.899Z,30.24
2022-08-11T12:02:51.927Z,30.21
2022-08-11T12:03:51.879Z,30.23
2022-08-11T12:04:51.888Z,30.32
2022-08-11T12:05:51.861Z,30.43
2022-08-11T12:06:51.850Z,30.37
2022-08-11T12:08:05.197Z,30.32
2022-08-11T12:08:52.851Z,30.30
2022-08-11T12:09:51.845Z,30.19
2022-08-11T12:10:51.831Z,30.19
2022-08-11T12:11:51.793Z,30.30
2022-08-11T12:12:51.782Z,30.27
2022-08-11T12:13:51.783Z,30.32
2022-08-11T12:14:51.793Z,30.35
2022-08-11T12:16:31.851Z,30.28
2022-08-11T12:16:54.752Z,30.12
2022-08-11T12:17:52.854Z,30.18
2022-08-11T12:18:51.789Z,30.27
2022-08-11T12:19:51.730Z,30.21
2022-08-11T12:20:51.717Z,30.27
2022-08-11T12:21:51.699Z,30.37
2022-08-11T12:22:51.689Z,30.35
2022-08-11T12:23:51.682Z,30.44
2022-08-11T12:24:51.673Z,30.44
2022-08-11T12:26:10.036Z,30.48
2022-08-11T12:27:14.750Z,30.53
2022-08-11T12:27:52.658Z,30.59
2022-08-11T12:28:51.631Z,30.55
2022-08-11T12:29:55.488Z,30.46
2022-08-11T12:30:54.148Z,30.25
2022-08-11T12:31:54.584Z,30.06
2022-08-11T12:32:51.597Z,29.94
2022-08-11T12:33:51.617Z,29.98
2022-08-11T12:34:51.556Z,29.95
2022-08-11T12:36:00.972Z,30.02
2022-08-11T12:36:51.549Z,30.08
2022-08-11T12:37:51.545Z,30.23
2022-08-11T12:38:52.517Z,30.31
2022-08-11T12:40:15.601Z,30.43
2022-08-11T12:41:15.824Z,30.54
2022-08-11T12:41:52.531Z,30.70
2022-08-11T12:42:55.523Z,30.84
2022-08-11T12:43:56.913Z,30.85
2022-08-11T12:49:06.546Z,30.73
2022-08-11T12:50:06.506Z,30.68
2022-08-11T12:51:07.484Z,30.66
2022-08-11T12:52:14.954Z,30.69
2022-08-11T12:53:06.475Z,30.72
2022-08-11T12:54:13.559Z,30.69
2022-08-11T12:55:11.033Z,30.77
2022-08-11T12:56:07.782Z,30.85
2022-08-11T12:57:06.431Z,30.96
2022-08-11T12:58:06.423Z,31.03
2022-08-11T12:59:06.422Z,31.12
2022-08-11T13:00:06.434Z,31.06
2022-08-11T13:01:13.484Z,31.09
2022-08-11T13:03:31.258Z,31.10
2022-08-11T13:04:31.225Z,31.14
2022-08-11T13:07:24.618Z,31.27
2022-08-11T13:08:25.580Z,31.29
2022-08-11T13:09:24.560Z,31.37